sensor_id;sensor_type;location;lat;lon;timestamp;P1;durP1;ratioP1;P2;durP2;ratioP2
6249;SDS011;3158;52.148;11.568;2024-01-30T00:03:30;7.60;;;5.88;;
6249;SDS011;3158;52.148;11.568;2024-01-30T00:08:31;8.45;;;6.20;;
6249;SDS011;3158;52.148;11.568;2024-01-30T00:13:31;7.50;;;5.78;;
6249;SDS011;3158;52.148;11.568;2024-01-30T00:18:31;7.75;;;5.45;;
6249;SDS011;3158;52.148;11.568;2024-01-30T00:23:32;10.48;;;6.07;;
6249;SDS011;3158;52.148;11.568;2024-01-30T00:28:32;7.63;;;5.28;;
6249;SDS011;3158;52.148;11.568;2024-01-30T00:33:32;12.07;;;5.80;;
6249;SDS011;3158;52.148;11.568;2024-01-30T00:38:33;5.72;;;5.15;;
6249;SDS011;3158;52.148;11.568;2024-01-30T00:43:33;9.57;;;5.38;;
6249;SDS011;3158;52.148;11.568;2024-01-30T00:48:33;7.22;;;5.90;;
6249;SDS011;3158;52.148;11.568;2024-01-30T00:53:34;5.53;;;5.05;;
6249;SDS011;3158;52.148;11.568;2024-01-30T00:58:34;8.05;;;5.53;;
6249;SDS011;3158;52.148;11.568;2024-01-30T01:03:35;7.57;;;5.32;;
6249;SDS011;3158;52.148;11.568;2024-01-30T01:08:35;9.23;;;5.90;;
6249;SDS011;3158;52.148;11.568;2024-01-30T01:13:36;8.40;;;5.10;;
6249;SDS011;3158;52.148;11.568;2024-01-30T01:18:36;4.82;;;4.35;;
6249;SDS011;3158;52.148;11.568;2024-01-30T01:23:36;5.82;;;4.57;;
6249;SDS011;3158;52.148;11.568;2024-01-30T01:28:37;8.52;;;5.45;;
6249;SDS011;3158;52.148;11.568;2024-01-30T01:33:37;5.95;;;4.80;;
6249;SDS011;3158;52.148;11.568;2024-01-30T01:38:37;8.65;;;4.80;;
6249;SDS011;3158;52.148;11.568;2024-01-30T01:43:38;7.65;;;4.93;;
6249;SDS011;3158;52.148;11.568;2024-01-30T01:48:39;5.93;;;5.13;;
6249;SDS011;3158;52.148;11.568;2024-01-30T01:53:40;7.85;;;4.93;;
6249;SDS011;3158;52.148;11.568;2024-01-30T01:58:40;7.82;;;5.15;;
6249;SDS011;3158;52.148;11.568;2024-01-30T02:03:41;6.90;;;4.88;;
6249;SDS011;3158;52.148;11.568;2024-01-30T02:08:42;8.38;;;5.18;;
6249;SDS011;3158;52.148;11.568;2024-01-30T02:13:42;6.30;;;4.93;;
6249;SDS011;3158;52.148;11.568;2024-01-30T02:18:43;11.30;;;5.60;;
6249;SDS011;3158;52.148;11.568;2024-01-30T02:23:48;7.30;;;5.15;;
6249;SDS011;3158;52.148;11.568;2024-01-30T02:28:49;7.88;;;5.22;;
6249;SDS011;3158;52.148;11.568;2024-01-30T02:33:49;9.30;;;5.25;;
6249;SDS011;3158;52.148;11.568;2024-01-30T02:38:50;6.95;;;5.53;;
6249;SDS011;3158;52.148;11.568;2024-01-30T02:43:50;7.65;;;5.35;;
6249;SDS011;3158;52.148;11.568;2024-01-30T02:48:50;5.82;;;4.88;;
6249;SDS011;3158;52.148;11.568;2024-01-30T02:53:50;7.10;;;4.82;;
6249;SDS011;3158;52.148;11.568;2024-01-30T02:58:51;4.88;;;4.45;;
6249;SDS011;3158;52.148;11.568;2024-01-30T03:03:51;8.68;;;4.68;;
6249;SDS011;3158;52.148;11.568;2024-01-30T03:08:51;6.38;;;4.05;;
6249;SDS011;3158;52.148;11.568;2024-01-30T03:13:51;7.22;;;5.20;;
6249;SDS011;3158;52.148;11.568;2024-01-30T03:18:51;8.02;;;4.60;;
6249;SDS011;3158;52.148;11.568;2024-01-30T03:23:52;10.35;;;4.60;;
6249;SDS011;3158;52.148;11.568;2024-01-30T03:28:52;6.43;;;5.10;;
6249;SDS011;3158;52.148;11.568;2024-01-30T03:33:52;5.18;;;4.70;;
6249;SDS011;3158;52.148;11.568;2024-01-30T03:38:52;7.72;;;5.07;;
6249;SDS011;3158;52.148;11.568;2024-01-30T03:43:53;6.88;;;5.63;;
6249;SDS011;3158;52.148;11.568;2024-01-30T03:48:53;4.60;;;4.20;;
6249;SDS011;3158;52.148;11.568;2024-01-30T03:53:53;5.75;;;4.47;;
6249;SDS011;3158;52.148;11.568;2024-01-30T03:58:54;8.20;;;4.80;;
6249;SDS011;3158;52.148;11.568;2024-01-30T04:03:54;6.43;;;4.72;;
6249;SDS011;3158;52.148;11.568;2024-01-30T04:08:54;6.07;;;4.22;;
6249;SDS011;3158;52.148;11.568;2024-01-30T04:13:54;4.93;;;4.20;;
6249;SDS011;3158;52.148;11.568;2024-01-30T04:18:55;5.25;;;4.32;;
6249;SDS011;3158;52.148;11.568;2024-01-30T04:23:55;6.10;;;4.90;;
6249;SDS011;3158;52.148;11.568;2024-01-30T04:28:56;7.60;;;5.00;;
6249;SDS011;3158;52.148;11.568;2024-01-30T04:33:56;7.50;;;4.47;;
6249;SDS011;3158;52.148;11.568;2024-01-30T04:38:56;5.50;;;4.50;;
6249;SDS011;3158;52.148;11.568;2024-01-30T04:43:56;5.57;;;4.60;;
6249;SDS011;3158;52.148;11.568;2024-01-30T04:48:56;9.68;;;5.10;;
6249;SDS011;3158;52.148;11.568;2024-01-30T04:53:57;6.32;;;5.15;;
6249;SDS011;3158;52.148;11.568;2024-01-30T04:58:57;10.95;;;5.85;;
6249;SDS011;3158;52.148;11.568;2024-01-30T05:03:57;7.97;;;5.28;;
6249;SDS011;3158;52.148;11.568;2024-01-30T05:08:57;5.68;;;4.82;;
6249;SDS011;3158;52.148;11.568;2024-01-30T05:13:58;6.70;;;5.70;;
6249;SDS011;3158;52.148;11.568;2024-01-30T05:18:58;5.13;;;4.65;;
6249;SDS011;3158;52.148;11.568;2024-01-30T05:23:59;6.88;;;5.50;;
6249;SDS011;3158;52.148;11.568;2024-01-30T05:28:59;12.57;;;6.07;;
6249;SDS011;3158;52.148;11.568;2024-01-30T05:33:59;6.45;;;4.95;;
6249;SDS011;3158;52.148;11.568;2024-01-30T05:39:00;7.07;;;5.35;;
6249;SDS011;3158;52.148;11.568;2024-01-30T05:44:00;8.63;;;5.30;;
6249;SDS011;3158;52.148;11.568;2024-01-30T05:49:00;11.57;;;5.28;;
6249;SDS011;3158;52.148;11.568;2024-01-30T05:54:00;5.30;;;4.45;;
6249;SDS011;3158;52.148;11.568;2024-01-30T05:59:03;5.85;;;5.30;;
6249;SDS011;3158;52.148;11.568;2024-01-30T06:04:03;15.43;;;4.72;;
6249;SDS011;3158;52.148;11.568;2024-01-30T06:09:04;5.53;;;4.95;;
6249;SDS011;3158;52.148;11.568;2024-01-30T06:14:04;6.55;;;4.97;;
6249;SDS011;3158;52.148;11.568;2024-01-30T06:19:04;6.75;;;4.80;;
6249;SDS011;3158;52.148;11.568;2024-01-30T06:24:06;7.53;;;5.22;;
6249;SDS011;3158;52.148;11.568;2024-01-30T06:29:06;6.07;;;5.00;;
6249;SDS011;3158;52.148;11.568;2024-01-30T06:34:08;8.70;;;5.22;;
6249;SDS011;3158;52.148;11.568;2024-01-30T06:39:08;7.03;;;5.43;;
6249;SDS011;3158;52.148;11.568;2024-01-30T06:44:08;7.75;;;5.65;;
6249;SDS011;3158;52.148;11.568;2024-01-30T06:49:09;6.60;;;5.43;;
6249;SDS011;3158;52.148;11.568;2024-01-30T06:54:09;7.20;;;4.93;;
6249;SDS011;3158;52.148;11.568;2024-01-30T06:59:09;5.93;;;5.38;;
6249;SDS011;3158;52.148;11.568;2024-01-30T07:04:09;7.15;;;4.70;;
6249;SDS011;3158;52.148;11.568;2024-01-30T07:09:10;5.97;;;4.20;;
6249;SDS011;3158;52.148;11.568;2024-01-30T07:14:10;5.85;;;5.22;;
6249;SDS011;3158;52.148;11.568;2024-01-30T07:19:10;10.45;;;5.60;;
6249;SDS011;3158;52.148;11.568;2024-01-30T07:24:10;6.53;;;5.30;;
6249;SDS011;3158;52.148;11.568;2024-01-30T07:29:11;9.90;;;6.25;;
6249;SDS011;3158;52.148;11.568;2024-01-30T07:34:11;7.80;;;5.45;;
6249;SDS011;3158;52.148;11.568;2024-01-30T07:39:11;10.85;;;6.57;;
6249;SDS011;3158;52.148;11.568;2024-01-30T07:44:13;5.70;;;5.13;;
6249;SDS011;3158;52.148;11.568;2024-01-30T07:49:13;11.55;;;5.95;;
6249;SDS011;3158;52.148;11.568;2024-01-30T07:54:14;7.95;;;5.13;;
6249;SDS011;3158;52.148;11.568;2024-01-30T07:59:14;10.65;;;5.80;;
6249;SDS011;3158;52.148;11.568;2024-01-30T08:04:15;10.20;;;7.10;;
6249;SDS011;3158;52.148;11.568;2024-01-30T08:09:15;8.57;;;6.13;;
6249;SDS011;3158;52.148;11.568;2024-01-30T08:14:15;8.20;;;6.90;;
6249;SDS011;3158;52.148;11.568;2024-01-30T08:19:15;10.73;;;5.97;;
6249;SDS011;3158;52.148;11.568;2024-01-30T08:24:16;10.38;;;6.32;;
6249;SDS011;3158;52.148;11.568;2024-01-30T08:29:16;10.43;;;6.68;;
6249;SDS011;3158;52.148;11.568;2024-01-30T08:34:16;8.68;;;7.03;;
6249;SDS011;3158;52.148;11.568;2024-01-30T08:39:17;15.38;;;6.95;;
6249;SDS011;3158;52.148;11.568;2024-01-30T08:44:17;11.73;;;7.97;;
6249;SDS011;3158;52.148;11.568;2024-01-30T08:49:17;13.05;;;7.78;;
6249;SDS011;3158;52.148;11.568;2024-01-30T08:54:18;12.75;;;7.40;;
6249;SDS011;3158;52.148;11.568;2024-01-30T08:59:18;12.52;;;6.72;;
6249;SDS011;3158;52.148;11.568;2024-01-30T09:04:19;8.85;;;7.35;;
6249;SDS011;3158;52.148;11.568;2024-01-30T09:09:20;9.05;;;6.63;;
6249;SDS011;3158;52.148;11.568;2024-01-30T09:14:20;10.18;;;6.90;;
6249;SDS011;3158;52.148;11.568;2024-01-30T09:19:20;13.90;;;7.68;;
6249;SDS011;3158;52.148;11.568;2024-01-30T09:24:21;8.98;;;6.80;;
6249;SDS011;3158;52.148;11.568;2024-01-30T09:29:21;9.60;;;6.28;;
6249;SDS011;3158;52.148;11.568;2024-01-30T09:34:21;7.32;;;5.93;;
6249;SDS011;3158;52.148;11.568;2024-01-30T09:39:22;8.68;;;6.32;;
6249;SDS011;3158;52.148;11.568;2024-01-30T09:44:22;7.33;;;6.63;;
6249;SDS011;3158;52.148;11.568;2024-01-30T09:49:23;6.75;;;6.05;;
6249;SDS011;3158;52.148;11.568;2024-01-30T09:54:24;9.80;;;5.90;;
6249;SDS011;3158;52.148;11.568;2024-01-30T09:59:24;6.03;;;5.45;;
6249;SDS011;3158;52.148;11.568;2024-01-30T10:04:25;8.90;;;4.88;;
6249;SDS011;3158;52.148;11.568;2024-01-30T10:09:25;5.03;;;4.43;;
6249;SDS011;3158;52.148;11.568;2024-01-30T10:14:25;6.68;;;5.10;;
6249;SDS011;3158;52.148;11.568;2024-01-30T10:19:25;5.28;;;4.25;;
6249;SDS011;3158;52.148;11.568;2024-01-30T10:24:26;7.22;;;4.40;;
6249;SDS011;3158;52.148;11.568;2024-01-30T10:29:27;9.18;;;4.78;;
6249;SDS011;3158;52.148;11.568;2024-01-30T10:34:27;8.30;;;4.45;;
6249;SDS011;3158;52.148;11.568;2024-01-30T10:39:28;5.18;;;3.53;;
6249;SDS011;3158;52.148;11.568;2024-01-30T10:44:34;5.13;;;3.78;;
6249;SDS011;3158;52.148;11.568;2024-01-30T10:49:36;6.53;;;4.25;;
6249;SDS011;3158;52.148;11.568;2024-01-30T10:54:37;5.07;;;4.07;;
6249;SDS011;3158;52.148;11.568;2024-01-30T10:59:37;6.77;;;3.93;;
6249;SDS011;3158;52.148;11.568;2024-01-30T11:04:38;5.68;;;4.20;;
6249;SDS011;3158;52.148;11.568;2024-01-30T11:09:41;4.50;;;4.05;;
6249;SDS011;3158;52.148;11.568;2024-01-30T11:14:41;4.05;;;3.75;;
6249;SDS011;3158;52.148;11.568;2024-01-30T11:19:43;5.82;;;4.13;;
6249;SDS011;3158;52.148;11.568;2024-01-30T11:24:43;4.30;;;3.90;;
6249;SDS011;3158;52.148;11.568;2024-01-30T11:29:49;6.47;;;3.95;;
6249;SDS011;3158;52.148;11.568;2024-01-30T11:34:50;5.18;;;4.10;;
6249;SDS011;3158;52.148;11.568;2024-01-30T11:39:50;5.57;;;4.07;;
6249;SDS011;3158;52.148;11.568;2024-01-30T11:44:51;4.00;;;3.78;;
6249;SDS011;3158;52.148;11.568;2024-01-30T11:49:51;3.72;;;3.50;;
6249;SDS011;3158;52.148;11.568;2024-01-30T11:54:51;3.85;;;3.65;;
6249;SDS011;3158;52.148;11.568;2024-01-30T11:59:51;5.80;;;3.70;;
6249;SDS011;3158;52.148;11.568;2024-01-30T12:04:52;4.72;;;4.32;;
6249;SDS011;3158;52.148;11.568;2024-01-30T12:09:53;5.82;;;3.58;;
6249;SDS011;3158;52.148;11.568;2024-01-30T12:14:54;3.97;;;3.67;;
6249;SDS011;3158;52.148;11.568;2024-01-30T12:25:10;3.47;;;3.20;;
6249;SDS011;3158;52.148;11.568;2024-01-30T12:30:11;4.32;;;3.75;;
6249;SDS011;3158;52.148;11.568;2024-01-30T12:35:12;4.35;;;3.42;;
6249;SDS011;3158;52.148;11.568;2024-01-30T12:40:13;6.22;;;4.28;;
6249;SDS011;3158;52.148;11.568;2024-01-30T12:45:14;3.95;;;3.63;;
6249;SDS011;3158;52.148;11.568;2024-01-30T12:50:15;5.97;;;3.72;;
6249;SDS011;3158;52.148;11.568;2024-01-30T12:55:19;6.38;;;3.58;;
6249;SDS011;3158;52.148;11.568;2024-01-30T13:00:19;4.10;;;3.70;;
6249;SDS011;3158;52.148;11.568;2024-01-30T13:05:19;4.40;;;4.00;;
6249;SDS011;3158;52.148;11.568;2024-01-30T13:10:20;4.28;;;3.90;;
6249;SDS011;3158;52.148;11.568;2024-01-30T13:15:21;3.92;;;3.63;;
6249;SDS011;3158;52.148;11.568;2024-01-30T13:20:22;3.97;;;3.65;;
6249;SDS011;3158;52.148;11.568;2024-01-30T13:25:23;3.72;;;3.53;;
6249;SDS011;3158;52.148;11.568;2024-01-30T13:30:23;5.00;;;4.32;;
6249;SDS011;3158;52.148;11.568;2024-01-30T13:35:23;6.00;;;3.70;;
6249;SDS011;3158;52.148;11.568;2024-01-30T13:40:23;4.05;;;3.70;;
6249;SDS011;3158;52.148;11.568;2024-01-30T13:45:24;4.05;;;3.65;;
6249;SDS011;3158;52.148;11.568;2024-01-30T13:50:24;4.72;;;3.78;;
6249;SDS011;3158;52.148;11.568;2024-01-30T13:55:25;3.63;;;3.33;;
6249;SDS011;3158;52.148;11.568;2024-01-30T14:00:25;3.75;;;3.42;;
6249;SDS011;3158;52.148;11.568;2024-01-30T14:05:26;6.57;;;3.75;;
6249;SDS011;3158;52.148;11.568;2024-01-30T14:10:27;3.80;;;3.50;;
6249;SDS011;3158;52.148;11.568;2024-01-30T14:15:28;5.40;;;3.42;;
6249;SDS011;3158;52.148;11.568;2024-01-30T14:20:28;4.82;;;3.60;;
6249;SDS011;3158;52.148;11.568;2024-01-30T14:25:28;6.10;;;4.45;;
6249;SDS011;3158;52.148;11.568;2024-01-30T14:30:28;7.03;;;4.35;;
6249;SDS011;3158;52.148;11.568;2024-01-30T14:35:29;5.07;;;4.40;;
6249;SDS011;3158;52.148;11.568;2024-01-30T14:40:29;5.88;;;4.55;;
6249;SDS011;3158;52.148;11.568;2024-01-30T14:45:30;5.85;;;4.55;;
6249;SDS011;3158;52.148;11.568;2024-01-30T14:50:31;10.95;;;4.45;;
6249;SDS011;3158;52.148;11.568;2024-01-30T14:55:32;4.37;;;4.07;;
6249;SDS011;3158;52.148;11.568;2024-01-30T15:00:32;7.38;;;4.22;;
6249;SDS011;3158;52.148;11.568;2024-01-30T15:05:32;5.30;;;4.30;;
6249;SDS011;3158;52.148;11.568;2024-01-30T15:10:33;4.93;;;4.40;;
6249;SDS011;3158;52.148;11.568;2024-01-30T15:15:33;6.32;;;5.57;;
6249;SDS011;3158;52.148;11.568;2024-01-30T15:20:34;5.50;;;4.28;;
6249;SDS011;3158;52.148;11.568;2024-01-30T15:25:34;8.25;;;4.93;;
6249;SDS011;3158;52.148;11.568;2024-01-30T15:30:34;6.80;;;4.38;;
6249;SDS011;3158;52.148;11.568;2024-01-30T15:35:35;5.63;;;4.45;;
6249;SDS011;3158;52.148;11.568;2024-01-30T15:40:35;5.63;;;5.00;;
6249;SDS011;3158;52.148;11.568;2024-01-30T15:45:35;9.52;;;5.75;;
6249;SDS011;3158;52.148;11.568;2024-01-30T15:50:36;6.30;;;5.43;;
6249;SDS011;3158;52.148;11.568;2024-01-30T15:55:36;4.57;;;4.13;;
6249;SDS011;3158;52.148;11.568;2024-01-30T16:00:36;6.10;;;5.20;;
6249;SDS011;3158;52.148;11.568;2024-01-30T16:05:37;7.15;;;4.68;;
6249;SDS011;3158;52.148;11.568;2024-01-30T16:10:38;7.88;;;5.90;;
6249;SDS011;3158;52.148;11.568;2024-01-30T16:15:38;7.60;;;6.50;;
6249;SDS011;3158;52.148;11.568;2024-01-30T16:20:40;8.10;;;5.88;;
6249;SDS011;3158;52.148;11.568;2024-01-30T16:25:41;14.93;;;8.82;;
6249;SDS011;3158;52.148;11.568;2024-01-30T16:30:42;12.70;;;6.40;;
6249;SDS011;3158;52.148;11.568;2024-01-30T16:35:42;13.95;;;7.32;;
6249;SDS011;3158;52.148;11.568;2024-01-30T16:40:42;11.93;;;6.75;;
6249;SDS011;3158;52.148;11.568;2024-01-30T16:45:43;9.23;;;6.20;;
6249;SDS011;3158;52.148;11.568;2024-01-30T16:50:43;11.15;;;6.32;;
6249;SDS011;3158;52.148;11.568;2024-01-30T16:55:44;10.52;;;6.55;;
6249;SDS011;3158;52.148;11.568;2024-01-30T17:00:44;9.07;;;5.50;;
6249;SDS011;3158;52.148;11.568;2024-01-30T17:05:45;8.40;;;6.13;;
6249;SDS011;3158;52.148;11.568;2024-01-30T17:10:45;13.25;;;7.55;;
6249;SDS011;3158;52.148;11.568;2024-01-30T17:15:45;13.63;;;8.10;;
6249;SDS011;3158;52.148;11.568;2024-01-30T17:20:45;14.65;;;7.88;;
6249;SDS011;3158;52.148;11.568;2024-01-30T17:25:47;19.75;;;9.23;;
6249;SDS011;3158;52.148;11.568;2024-01-30T17:30:48;14.50;;;8.18;;
6249;SDS011;3158;52.148;11.568;2024-01-30T17:35:48;12.35;;;7.53;;
6249;SDS011;3158;52.148;11.568;2024-01-30T17:40:48;13.43;;;8.70;;
6249;SDS011;3158;52.148;11.568;2024-01-30T17:45:51;9.77;;;7.22;;
6249;SDS011;3158;52.148;11.568;2024-01-30T17:50:51;13.30;;;7.32;;
6249;SDS011;3158;52.148;11.568;2024-01-30T17:55:51;14.40;;;8.48;;
6249;SDS011;3158;52.148;11.568;2024-01-30T18:00:52;13.27;;;8.30;;
6249;SDS011;3158;52.148;11.568;2024-01-30T18:05:52;11.65;;;8.10;;
6249;SDS011;3158;52.148;11.568;2024-01-30T18:10:54;11.50;;;8.05;;
6249;SDS011;3158;52.148;11.568;2024-01-30T18:15:55;13.23;;;7.50;;
6249;SDS011;3158;52.148;11.568;2024-01-30T18:20:55;11.18;;;8.20;;
6249;SDS011;3158;52.148;11.568;2024-01-30T18:25:55;11.02;;;7.55;;
6249;SDS011;3158;52.148;11.568;2024-01-30T18:30:59;10.55;;;7.43;;
6249;SDS011;3158;52.148;11.568;2024-01-30T18:36:00;18.02;;;10.50;;
6249;SDS011;3158;52.148;11.568;2024-01-30T18:41:00;13.18;;;10.15;;
6249;SDS011;3158;52.148;11.568;2024-01-30T18:46:00;13.20;;;8.68;;
6249;SDS011;3158;52.148;11.568;2024-01-30T18:51:00;10.30;;;7.60;;
6249;SDS011;3158;52.148;11.568;2024-01-30T18:56:01;10.50;;;7.38;;
6249;SDS011;3158;52.148;11.568;2024-01-30T19:01:02;10.80;;;6.95;;
6249;SDS011;3158;52.148;11.568;2024-01-30T19:06:03;8.65;;;6.90;;
6249;SDS011;3158;52.148;11.568;2024-01-30T19:11:03;9.55;;;6.90;;
6249;SDS011;3158;52.148;11.568;2024-01-30T19:16:03;9.23;;;7.18;;
6249;SDS011;3158;52.148;11.568;2024-01-30T19:21:04;10.63;;;7.82;;
6249;SDS011;3158;52.148;11.568;2024-01-30T19:26:04;15.63;;;8.23;;
6249;SDS011;3158;52.148;11.568;2024-01-30T19:31:04;10.68;;;6.88;;
6249;SDS011;3158;52.148;11.568;2024-01-30T19:36:05;12.73;;;7.65;;
6249;SDS011;3158;52.148;11.568;2024-01-30T19:41:05;23.13;;;12.60;;
6249;SDS011;3158;52.148;11.568;2024-01-30T19:46:08;13.13;;;7.70;;
6249;SDS011;3158;52.148;11.568;2024-01-30T19:51:10;10.27;;;6.32;;
6249;SDS011;3158;52.148;11.568;2024-01-30T19:56:11;13.90;;;8.50;;
6249;SDS011;3158;52.148;11.568;2024-01-30T20:01:11;10.52;;;7.93;;
6249;SDS011;3158;52.148;11.568;2024-01-30T20:06:11;11.68;;;7.93;;
6249;SDS011;3158;52.148;11.568;2024-01-30T20:11:13;8.80;;;7.22;;
6249;SDS011;3158;52.148;11.568;2024-01-30T20:16:14;11.18;;;7.78;;
6249;SDS011;3158;52.148;11.568;2024-01-30T20:21:14;11.30;;;7.72;;
6249;SDS011;3158;52.148;11.568;2024-01-30T20:26:14;12.98;;;7.95;;
6249;SDS011;3158;52.148;11.568;2024-01-30T20:31:14;8.25;;;7.20;;
6249;SDS011;3158;52.148;11.568;2024-01-30T20:36:15;11.85;;;7.68;;
6249;SDS011;3158;52.148;11.568;2024-01-30T20:41:15;13.38;;;8.70;;
6249;SDS011;3158;52.148;11.568;2024-01-30T20:46:16;8.85;;;6.05;;
6249;SDS011;3158;52.148;11.568;2024-01-30T20:51:16;9.65;;;6.97;;
6249;SDS011;3158;52.148;11.568;2024-01-30T20:56:17;14.82;;;8.40;;
6249;SDS011;3158;52.148;11.568;2024-01-30T21:01:17;8.32;;;6.72;;
6249;SDS011;3158;52.148;11.568;2024-01-30T21:06:17;9.13;;;6.85;;
6249;SDS011;3158;52.148;11.568;2024-01-30T21:11:18;13.52;;;6.65;;
6249;SDS011;3158;52.148;11.568;2024-01-30T21:16:19;8.60;;;6.53;;
6249;SDS011;3158;52.148;11.568;2024-01-30T21:21:19;11.82;;;7.30;;
6249;SDS011;3158;52.148;11.568;2024-01-30T21:26:19;8.88;;;6.78;;
6249;SDS011;3158;52.148;11.568;2024-01-30T21:31:19;7.20;;;5.57;;
6249;SDS011;3158;52.148;11.568;2024-01-30T21:36:20;14.93;;;6.07;;
6249;SDS011;3158;52.148;11.568;2024-01-30T21:41:20;5.95;;;5.13;;
6249;SDS011;3158;52.148;11.568;2024-01-30T21:46:23;7.18;;;5.10;;
6249;SDS011;3158;52.148;11.568;2024-01-30T21:51:23;7.95;;;5.82;;
6249;SDS011;3158;52.148;11.568;2024-01-30T21:56:23;8.48;;;5.63;;
6249;SDS011;3158;52.148;11.568;2024-01-30T22:01:23;6.37;;;5.30;;
6249;SDS011;3158;52.148;11.568;2024-01-30T22:06:24;8.27;;;5.47;;
6249;SDS011;3158;52.148;11.568;2024-01-30T22:11:24;5.85;;;5.28;;
6249;SDS011;3158;52.148;11.568;2024-01-30T22:16:24;11.32;;;6.85;;
6249;SDS011;3158;52.148;11.568;2024-01-30T22:21:25;10.63;;;6.85;;
6249;SDS011;3158;52.148;11.568;2024-01-30T22:26:25;11.50;;;6.80;;
6249;SDS011;3158;52.148;11.568;2024-01-30T22:31:26;12.95;;;7.70;;
6249;SDS011;3158;52.148;11.568;2024-01-30T22:36:26;22.38;;;10.32;;
6249;SDS011;3158;52.148;11.568;2024-01-30T22:41:26;12.77;;;8.15;;
6249;SDS011;3158;52.148;11.568;2024-01-30T22:46:28;11.95;;;7.80;;
6249;SDS011;3158;52.148;11.568;2024-01-30T22:51:28;14.90;;;7.70;;
6249;SDS011;3158;52.148;11.568;2024-01-30T22:56:29;7.10;;;6.05;;
6249;SDS011;3158;52.148;11.568;2024-01-30T23:01:29;9.07;;;5.88;;
6249;SDS011;3158;52.148;11.568;2024-01-30T23:06:29;8.90;;;5.72;;
6249;SDS011;3158;52.148;11.568;2024-01-30T23:11:30;12.75;;;5.53;;
6249;SDS011;3158;52.148;11.568;2024-01-30T23:16:30;6.10;;;4.53;;
6249;SDS011;3158;52.148;11.568;2024-01-30T23:21:31;6.75;;;4.70;;
6249;SDS011;3158;52.148;11.568;2024-01-30T23:26:31;6.72;;;5.07;;
6249;SDS011;3158;52.148;11.568;2024-01-30T23:31:32;5.95;;;4.07;;
6249;SDS011;3158;52.148;11.568;2024-01-30T23:36:32;6.23;;;3.40;;
6249;SDS011;3158;52.148;11.568;2024-01-30T23:41:33;4.05;;;3.60;;
6249;SDS011;3158;52.148;11.568;2024-01-30T23:46:34;3.72;;;3.42;;
6249;SDS011;3158;52.148;11.568;2024-01-30T23:51:34;3.45;;;3.13;;
6249;SDS011;3158;52.148;11.568;2024-01-30T23:56:38;2.47;;;2.38;;
